createdAt,value
2022-08-24T00:00:16.411Z,2.40
2022-08-24T00:02:44.255Z,2.63
2022-08-24T00:05:14.705Z,2.40
2022-08-24T00:07:42.414Z,2.00
2022-08-24T00:10:12.487Z,2.10
2022-08-24T00:12:40.317Z,2.30
2022-08-24T00:15:09.210Z,2.10
2022-08-24T00:17:37.227Z,2.03
2022-08-24T00:20:05.589Z,2.40
2022-08-24T00:22:33.028Z,2.42
2022-08-24T00:25:00.593Z,2.47
2022-08-24T00:27:29.424Z,2.40
2022-08-24T00:29:57.033Z,2.40
2022-08-24T00:32:24.513Z,2.38
2022-08-24T00:34:58.769Z,2.40
2022-08-24T00:37:28.343Z,2.50
2022-08-24T00:39:56.020Z,2.58
2022-08-24T00:42:23.665Z,2.55
2022-08-24T00:44:52.449Z,2.40
2022-08-24T00:47:21.035Z,2.40
2022-08-24T00:49:54.468Z,2.50
2022-08-24T00:52:24.759Z,2.60
2022-08-24T00:54:54.335Z,2.30
2022-08-24T00:57:23.601Z,2.50
2022-08-24T00:59:59.895Z,2.40
2022-08-24T01:02:30.137Z,2.20
2022-08-24T01:04:58.595Z,2.60
2022-08-24T01:07:26.904Z,2.55
2022-08-24T01:09:56.295Z,2.42
2022-08-24T01:12:25.210Z,2.30
2022-08-24T01:14:54.483Z,2.20
2022-08-24T01:17:40.578Z,2.58
2022-08-24T01:20:09.594Z,2.30
2022-08-24T01:22:47.628Z,2.60
2022-08-24T01:25:16.942Z,2.20
2022-08-24T01:27:44.428Z,2.27
2022-08-24T01:30:15.790Z,2.20
2022-08-24T01:32:53.356Z,2.22
2022-08-24T01:35:20.892Z,2.10
2022-08-24T01:37:48.603Z,2.35
2022-08-24T01:40:17.845Z,2.60
2022-08-24T01:42:48.448Z,2.30
2022-08-24T01:45:16.187Z,2.78
2022-08-24T01:47:43.615Z,2.40
2022-08-24T01:50:11.132Z,2.55
2022-08-24T01:53:03.775Z,2.40
2022-08-24T01:55:28.923Z,2.65
2022-08-24T01:57:56.386Z,2.30
2022-08-24T02:00:23.831Z,2.40
2022-08-24T02:02:51.402Z,2.47
2022-08-24T02:05:19.134Z,2.00
2022-08-24T02:07:46.633Z,2.40
2022-08-24T02:10:14.714Z,2.33
2022-08-24T02:12:45.131Z,2.40
2022-08-24T02:15:12.782Z,2.10
2022-08-24T02:17:40.742Z,2.43
2022-08-24T02:20:08.751Z,2.40
2022-08-24T02:22:36.219Z,2.25
2022-08-24T02:25:03.759Z,2.28
2022-08-24T02:27:31.392Z,2.10
2022-08-24T02:30:00.236Z,2.20
2022-08-24T02:32:27.616Z,2.22
2022-08-24T02:34:55.165Z,2.22
2022-08-24T02:37:22.559Z,2.22
2022-08-24T02:39:50.058Z,2.15
2022-08-24T02:42:17.484Z,2.37
2022-08-24T02:44:44.935Z,2.20
2022-08-24T02:47:13.694Z,2.30
2022-08-24T02:49:41.124Z,2.25
2022-08-24T02:52:08.550Z,2.50
2022-08-24T02:54:35.990Z,2.40
2022-08-24T02:57:03.452Z,2.15
2022-08-24T02:59:30.904Z,2.20
2022-08-24T03:01:58.490Z,2.10
2022-08-24T03:04:27.278Z,2.30
2022-08-24T03:06:54.724Z,2.30
2022-08-24T03:09:23.549Z,2.33
2022-08-24T03:11:51.184Z,2.55
2022-08-24T03:14:19.186Z,3.58
2022-08-24T03:16:46.670Z,2.83
2022-08-24T03:19:15.214Z,2.60
2022-08-24T03:21:44.008Z,2.67
2022-08-24T03:24:11.489Z,2.25
2022-08-24T03:26:39.037Z,2.60
2022-08-24T03:29:12.128Z,3.00
2022-08-24T03:31:39.596Z,2.77
2022-08-24T03:34:07.050Z,2.95
2022-08-24T03:36:34.491Z,3.00
2022-08-24T03:39:03.245Z,2.80
2022-08-24T03:41:30.698Z,2.70
2022-08-24T03:44:01.301Z,2.63
2022-08-24T03:46:29.819Z,2.42
2022-08-24T03:48:57.588Z,2.60
2022-08-24T03:51:25.775Z,2.63
2022-08-24T03:53:53.963Z,2.50
2022-08-24T03:56:22.895Z,2.80
2022-08-24T03:58:50.435Z,2.55
2022-08-24T04:01:18.179Z,2.70
2022-08-24T04:03:46.805Z,2.55
2022-08-24T04:06:15.942Z,2.85
2022-08-24T04:08:43.401Z,2.50
2022-08-24T04:11:11.667Z,2.83
2022-08-24T04:13:40.595Z,2.95
2022-08-24T04:16:08.398Z,2.67
2022-08-24T04:18:35.851Z,2.67
2022-08-24T04:21:03.457Z,2.80
2022-08-24T04:23:47.054Z,2.80
2022-08-24T04:26:16.235Z,3.00
2022-08-24T04:28:45.005Z,2.60
2022-08-24T04:31:13.710Z,2.90
2022-08-24T04:33:41.847Z,2.80
2022-08-24T04:36:11.007Z,2.83
2022-08-24T04:38:38.714Z,2.50
2022-08-24T04:41:06.396Z,2.67
2022-08-24T04:43:34.699Z,2.78
2022-08-24T04:46:05.477Z,2.63
2022-08-24T04:48:33.237Z,2.67
2022-08-24T04:51:02.841Z,2.70
2022-08-24T04:53:30.332Z,3.13
2022-08-24T04:55:58.047Z,2.95
2022-08-24T04:58:25.539Z,2.30
2022-08-24T05:00:53.036Z,2.60
2022-08-24T05:03:21.835Z,2.78
2022-08-24T05:05:50.565Z,2.70
2022-08-24T05:08:19.280Z,2.83
2022-08-24T05:10:47.836Z,2.90
2022-08-24T05:13:15.543Z,3.33
2022-08-24T05:15:44.225Z,3.10
2022-08-24T05:18:11.895Z,3.55
2022-08-24T05:20:42.306Z,3.15
2022-08-24T05:23:10.293Z,3.40
2022-08-24T05:25:37.986Z,3.25
2022-08-24T05:28:05.584Z,3.45
2022-08-24T05:30:33.070Z,2.90
2022-08-24T05:33:00.863Z,3.47
2022-08-24T05:35:28.376Z,3.37
2022-08-24T05:37:59.426Z,3.13
2022-08-24T05:40:33.297Z,3.35
2022-08-24T05:43:01.113Z,3.42
2022-08-24T05:45:28.821Z,3.05
2022-08-24T05:47:56.462Z,3.20
2022-08-24T05:50:23.877Z,3.10
2022-08-24T05:52:51.312Z,3.03
2022-08-24T05:55:20.050Z,2.80
2022-08-24T05:57:47.443Z,3.10
2022-08-24T06:00:15.417Z,3.13
2022-08-24T06:02:43.672Z,3.60
2022-08-24T06:05:11.416Z,3.13
2022-08-24T06:07:38.822Z,3.58
2022-08-24T06:10:34.852Z,3.75
2022-08-24T06:12:58.295Z,3.60
2022-08-24T06:15:25.908Z,3.33
2022-08-24T06:17:53.371Z,2.97
2022-08-24T06:20:21.450Z,3.10
2022-08-24T06:22:48.880Z,2.95
2022-08-24T06:25:33.906Z,3.30
2022-08-24T06:28:02.691Z,3.20
2022-08-24T06:30:30.735Z,3.10
2022-08-24T06:32:59.693Z,3.40
2022-08-24T06:35:27.287Z,3.55
2022-08-24T06:37:56.236Z,3.88
2022-08-24T06:40:25.830Z,3.83
2022-08-24T06:42:53.484Z,4.13
2022-08-24T06:45:22.515Z,3.90
2022-08-24T06:47:49.935Z,4.20
2022-08-24T06:50:17.393Z,4.20
2022-08-24T06:52:45.266Z,4.30
2022-08-24T06:55:12.767Z,4.50
2022-08-24T06:57:40.179Z,5.28
2022-08-24T07:00:09.076Z,4.32
2022-08-24T07:02:37.959Z,4.28
2022-08-24T07:05:06.212Z,4.90
2022-08-24T07:07:33.949Z,4.80
2022-08-24T07:10:01.919Z,5.28
2022-08-24T07:12:30.139Z,4.45
2022-08-24T07:14:57.611Z,4.63
2022-08-24T07:17:25.007Z,3.80
2022-08-24T07:19:53.790Z,4.70
2022-08-24T07:22:21.460Z,4.78
2022-08-24T07:24:48.920Z,4.72
2022-08-24T07:27:16.424Z,4.53
2022-08-24T07:29:52.725Z,4.57
2022-08-24T07:32:23.932Z,4.82
2022-08-24T07:34:51.459Z,4.50
2022-08-24T07:37:20.485Z,4.68
2022-08-24T07:39:47.982Z,4.70
2022-08-24T07:42:21.801Z,4.50
2022-08-24T07:44:53.075Z,4.70
2022-08-24T07:47:37.802Z,4.43
2022-08-24T07:50:09.524Z,3.83
2022-08-24T07:52:38.303Z,4.20
2022-08-24T07:55:06.552Z,3.43
2022-08-24T07:57:34.755Z,3.35
2022-08-24T08:00:02.396Z,3.80
2022-08-24T08:02:36.409Z,3.45
2022-08-24T08:05:04.205Z,3.25
2022-08-24T08:07:32.074Z,2.80
2022-08-24T08:10:01.888Z,3.35
2022-08-24T08:12:29.286Z,3.40
2022-08-24T08:14:57.371Z,3.50
2022-08-24T08:17:25.359Z,4.00
2022-08-24T08:19:52.836Z,3.90
2022-08-24T08:22:37.874Z,4.20
2022-08-24T08:25:08.059Z,3.40
2022-08-24T08:27:35.755Z,3.00
2022-08-24T08:30:03.804Z,2.75
2022-08-24T08:32:31.359Z,2.77
2022-08-24T08:35:02.083Z,3.10
2022-08-24T08:37:31.141Z,3.03
2022-08-24T08:39:58.857Z,3.08
2022-08-24T08:42:39.436Z,2.97
2022-08-24T08:45:12.469Z,3.00
2022-08-24T08:47:58.489Z,3.35
2022-08-24T08:50:29.452Z,3.38
2022-08-24T08:53:11.834Z,3.35
2022-08-24T08:55:41.384Z,3.20
2022-08-24T08:58:17.372Z,2.40
2022-08-24T09:00:56.388Z,2.20
2022-08-24T09:03:30.633Z,1.90
2022-08-24T09:06:05.102Z,1.52
2022-08-24T09:08:52.130Z,1.13
2022-08-24T09:11:24.393Z,1.20
2022-08-24T09:14:05.320Z,1.00
2022-08-24T09:16:41.732Z,0.90
2022-08-24T09:19:16.039Z,1.08
2022-08-24T09:22:01.621Z,1.20
2022-08-24T09:24:36.705Z,0.70
2022-08-24T09:27:08.735Z,1.10
2022-08-24T09:29:44.907Z,1.02
2022-08-24T09:32:25.164Z,0.93
2022-08-24T09:34:57.994Z,0.75
2022-08-24T09:37:43.673Z,0.90
2022-08-24T09:40:19.426Z,0.90
2022-08-24T09:43:12.752Z,0.82
2022-08-24T09:45:58.673Z,0.88
2022-08-24T09:48:36.764Z,1.00
2022-08-24T09:51:16.218Z,1.00
2022-08-24T09:53:57.665Z,1.00
2022-08-24T09:56:31.152Z,0.70
2022-08-24T09:59:16.881Z,0.90
2022-08-24T10:01:51.162Z,0.90
2022-08-24T10:04:22.148Z,0.90
2022-08-24T10:06:55.459Z,0.90
2022-08-24T10:09:50.216Z,0.60
2022-08-24T10:12:23.842Z,0.77
2022-08-24T10:14:54.286Z,0.77
2022-08-24T10:17:28.239Z,0.90
2022-08-24T10:20:03.772Z,0.82
2022-08-24T10:22:37.896Z,0.95
2022-08-24T10:25:11.249Z,1.00
2022-08-24T10:27:47.752Z,0.90
2022-08-24T10:30:27.899Z,0.80
2022-08-24T10:33:05.215Z,0.80
2022-08-24T10:35:36.122Z,0.90
2022-08-24T10:38:32.874Z,1.20
2022-08-24T10:41:09.966Z,0.70
2022-08-24T10:43:46.265Z,1.00
2022-08-24T10:46:32.392Z,0.90
2022-08-24T10:49:18.562Z,1.20
2022-08-24T10:51:57.768Z,1.00
2022-08-24T10:54:25.283Z,1.23
2022-08-24T10:56:57.397Z,1.23
2022-08-24T10:59:26.839Z,1.38
2022-08-24T11:02:09.576Z,1.00
2022-08-24T11:04:40.584Z,1.40
2022-08-24T11:07:11.295Z,1.20
2022-08-24T11:09:47.273Z,1.00
2022-08-24T11:12:18.997Z,1.10
2022-08-24T11:14:48.462Z,4.32
2022-08-24T11:17:16.979Z,1.45
2022-08-24T11:19:44.485Z,0.70
2022-08-24T11:22:27.999Z,6.13
2022-08-24T11:24:56.853Z,2.63
2022-08-24T11:27:30.432Z,4.70
2022-08-24T11:30:00.020Z,3.30
2022-08-24T11:32:32.209Z,9.27
2022-08-24T11:35:03.842Z,2.60
2022-08-24T11:37:34.652Z,1.50
2022-08-24T11:40:02.274Z,1.63
2022-08-24T11:42:36.813Z,1.27
2022-08-24T11:45:07.566Z,1.48
2022-08-24T11:47:42.291Z,1.13
2022-08-24T11:50:18.027Z,1.30
2022-08-24T11:52:51.396Z,1.23
2022-08-24T11:55:24.225Z,1.48
2022-08-24T11:57:55.035Z,1.20
2022-08-24T12:00:23.593Z,4.20
2022-08-24T12:02:55.525Z,1.80
2022-08-24T12:05:26.269Z,1.50
2022-08-24T12:08:04.501Z,2.03
2022-08-24T12:10:38.435Z,1.70
2022-08-24T12:13:09.757Z,2.00
2022-08-24T12:15:40.030Z,1.67
2022-08-24T12:18:16.241Z,1.90
2022-08-24T12:20:48.140Z,1.92
2022-08-24T12:23:21.604Z,1.80
2022-08-24T12:26:04.406Z,1.80
2022-08-24T12:28:35.083Z,2.00
2022-08-24T12:31:07.724Z,2.00
2022-08-24T12:33:37.814Z,2.00
2022-08-24T12:36:08.617Z,1.63
2022-08-24T12:38:41.267Z,1.43
2022-08-24T12:41:14.686Z,1.30
2022-08-24T12:43:48.140Z,1.23
2022-08-24T12:46:17.322Z,1.20
2022-08-24T12:48:54.972Z,1.20
2022-08-24T12:51:24.376Z,1.30
2022-08-24T12:54:08.416Z,1.50
2022-08-24T12:56:44.087Z,1.20
2022-08-24T12:59:16.339Z,1.30
2022-08-24T13:01:45.923Z,1.52
2022-08-24T13:04:16.505Z,1.40
2022-08-24T13:06:46.564Z,1.35
2022-08-24T13:09:31.892Z,1.33
2022-08-24T13:12:00.937Z,0.90
2022-08-24T13:14:29.417Z,1.20
2022-08-24T13:17:12.956Z,1.40
2022-08-24T13:19:43.563Z,1.17
2022-08-24T13:22:29.543Z,1.40
2022-08-24T13:25:19.509Z,1.10
2022-08-24T13:27:51.907Z,1.10
2022-08-24T13:30:21.524Z,1.20
2022-08-24T13:32:56.888Z,1.50
2022-08-24T13:35:34.855Z,1.35
2022-08-24T13:38:21.032Z,1.20
2022-08-24T13:40:52.761Z,1.30
2022-08-24T13:43:21.974Z,1.20
2022-08-24T13:45:52.325Z,1.08
2022-08-24T13:48:48.989Z,1.20
2022-08-24T13:51:21.714Z,1.13
2022-08-24T13:53:56.500Z,1.23
2022-08-24T13:56:47.989Z,1.30
2022-08-24T13:59:22.435Z,1.15
2022-08-24T14:02:03.965Z,1.10
2022-08-24T14:04:36.294Z,1.30
2022-08-24T14:07:08.044Z,1.35
2022-08-24T14:09:39.262Z,1.10
2022-08-24T14:12:16.008Z,1.17
2022-08-24T14:15:01.216Z,1.00
2022-08-24T14:17:51.819Z,1.10
2022-08-24T14:20:33.303Z,0.95
2022-08-24T14:23:03.482Z,1.27
2022-08-24T14:25:33.705Z,1.30
2022-08-24T14:28:19.068Z,1.10
2022-08-24T14:30:50.341Z,1.10
2022-08-24T14:33:28.188Z,1.50
2022-08-24T14:36:12.553Z,1.40
2022-08-24T14:38:47.088Z,1.10
2022-08-24T14:41:31.604Z,1.10
2022-08-24T14:44:06.765Z,1.40
2022-08-24T14:46:39.086Z,1.40
2022-08-24T14:49:13.790Z,1.50
2022-08-24T14:51:48.347Z,1.33
2022-08-24T14:54:21.307Z,1.17
2022-08-24T14:56:53.742Z,1.40
2022-08-24T14:59:30.548Z,1.40
2022-08-24T15:02:16.513Z,1.30
2022-08-24T15:04:46.963Z,1.50
2022-08-24T15:07:22.763Z,1.52
2022-08-24T15:09:51.478Z,1.35
2022-08-24T15:12:24.224Z,1.45
2022-08-24T15:14:53.305Z,1.40
2022-08-24T15:17:26.975Z,1.30
2022-08-24T15:19:56.853Z,1.35
2022-08-24T15:22:27.432Z,1.63
2022-08-24T15:24:58.700Z,1.77
2022-08-24T15:27:28.564Z,1.60
2022-08-24T15:29:57.034Z,1.50
2022-08-24T15:32:29.819Z,1.50
2022-08-24T15:34:58.384Z,2.00
2022-08-24T15:37:30.087Z,2.00
2022-08-24T15:39:57.739Z,1.73
2022-08-24T15:42:29.831Z,1.60
2022-08-24T15:45:00.716Z,1.77
2022-08-24T15:47:31.072Z,1.80
2022-08-24T15:50:00.837Z,1.67
2022-08-24T15:52:38.234Z,1.80
2022-08-24T15:55:06.704Z,1.77
2022-08-24T15:57:36.992Z,1.90
2022-08-24T16:00:11.234Z,2.30
2022-08-24T16:02:39.476Z,2.10
2022-08-24T16:05:16.878Z,2.00
2022-08-24T16:08:02.362Z,2.10
2022-08-24T16:10:31.065Z,2.30
2022-08-24T16:13:06.907Z,2.10
2022-08-24T16:15:34.617Z,2.50
2022-08-24T16:18:03.872Z,2.28
2022-08-24T16:20:34.404Z,2.70
2022-08-24T16:23:03.189Z,2.38
2022-08-24T16:25:32.093Z,2.47
2022-08-24T16:28:07.693Z,2.42
2022-08-24T16:30:47.618Z,2.45
2022-08-24T16:33:33.739Z,2.53
2022-08-24T16:36:06.258Z,2.40
2022-08-24T16:38:36.676Z,2.20
2022-08-24T16:41:06.290Z,2.30
2022-08-24T16:43:34.714Z,2.47
2022-08-24T16:46:03.709Z,2.50
2022-08-24T16:48:31.740Z,2.90
2022-08-24T16:50:59.195Z,2.50
2022-08-24T16:53:27.993Z,2.30
2022-08-24T16:55:55.488Z,2.50
2022-08-24T16:58:27.603Z,2.67
2022-08-24T17:00:55.107Z,2.90
2022-08-24T17:03:22.804Z,3.10
2022-08-24T17:05:50.290Z,2.80
2022-08-24T17:08:17.734Z,2.95
2022-08-24T17:10:46.801Z,3.20
2022-08-24T17:13:33.110Z,3.00
2022-08-24T17:16:04.232Z,2.92
2022-08-24T17:18:32.185Z,2.95
2022-08-24T17:21:01.233Z,3.00
2022-08-24T17:23:28.945Z,3.47
2022-08-24T17:25:57.713Z,3.65
2022-08-24T17:28:25.273Z,3.30
2022-08-24T17:30:52.711Z,3.35
2022-08-24T17:33:20.166Z,3.55
2022-08-24T17:35:47.698Z,3.23
2022-08-24T17:38:15.199Z,3.30
2022-08-24T17:40:42.731Z,2.72
2022-08-24T17:43:11.538Z,2.90
2022-08-24T17:45:38.971Z,3.05
2022-08-24T17:48:06.461Z,2.97
2022-08-24T17:50:35.050Z,2.90
2022-08-24T17:53:03.736Z,3.13
2022-08-24T17:55:31.465Z,2.92
2022-08-24T17:57:59.092Z,2.42
2022-08-24T18:00:28.047Z,2.70
2022-08-24T18:02:55.750Z,2.70
2022-08-24T18:05:23.377Z,2.88
2022-08-24T18:07:54.297Z,2.60
2022-08-24T18:10:23.803Z,2.70
2022-08-24T18:12:51.310Z,2.67
2022-08-24T18:15:18.908Z,2.42
2022-08-24T18:17:49.136Z,3.00
2022-08-24T18:20:17.737Z,2.90
2022-08-24T18:22:47.154Z,2.50
2022-08-24T18:25:17.636Z,2.60
2022-08-24T18:27:45.954Z,2.95
2022-08-24T18:30:16.183Z,2.60
2022-08-24T18:32:43.658Z,2.83
2022-08-24T18:35:12.841Z,2.67
2022-08-24T18:37:40.256Z,2.90
2022-08-24T18:40:08.993Z,3.10
2022-08-24T18:42:37.964Z,3.00
2022-08-24T18:45:05.683Z,3.30
2022-08-24T18:47:33.188Z,3.35
2022-08-24T18:50:00.764Z,3.07
2022-08-24T18:52:29.577Z,3.20
2022-08-24T18:54:57.085Z,3.50
2022-08-24T18:57:24.745Z,3.28
2022-08-24T18:59:52.265Z,3.53
2022-08-24T19:02:33.538Z,3.47
2022-08-24T19:05:02.991Z,3.20
2022-08-24T19:07:32.671Z,3.55
2022-08-24T19:10:00.543Z,3.55
2022-08-24T19:12:29.000Z,3.67
2022-08-24T19:14:58.166Z,3.93
2022-08-24T19:17:26.387Z,3.55
2022-08-24T19:19:53.948Z,4.00
2022-08-24T19:22:21.488Z,3.97
2022-08-24T19:24:50.614Z,4.80
2022-08-24T19:27:19.428Z,4.40
2022-08-24T19:29:56.043Z,4.30
2022-08-24T19:32:25.033Z,4.22
2022-08-24T19:34:52.694Z,4.78
2022-08-24T19:37:20.588Z,5.25
2022-08-24T19:39:48.180Z,4.77
2022-08-24T19:42:20.362Z,5.00
2022-08-24T19:45:05.571Z,5.30
2022-08-24T19:47:34.391Z,5.20
2022-08-24T19:50:02.195Z,5.32
2022-08-24T19:52:32.443Z,5.60
2022-08-24T19:55:00.199Z,5.82
2022-08-24T19:57:42.554Z,5.60
2022-08-24T20:00:22.596Z,6.25
2022-08-24T20:02:51.193Z,6.35
2022-08-24T20:05:20.048Z,6.53
2022-08-24T20:07:47.651Z,7.32
2022-08-24T20:10:16.528Z,7.30
2022-08-24T20:12:45.429Z,7.30
2022-08-24T20:15:12.846Z,7.00
2022-08-24T20:17:40.341Z,7.67
2022-08-24T20:20:08.734Z,8.27
2022-08-24T20:22:36.155Z,8.65
2022-08-24T20:25:04.157Z,8.50
2022-08-24T20:27:31.714Z,8.52
2022-08-24T20:30:00.608Z,8.53
2022-08-24T20:32:29.260Z,8.85
2022-08-24T20:34:56.711Z,8.98
2022-08-24T20:37:25.350Z,8.50
2022-08-24T20:39:55.201Z,9.68
2022-08-24T20:42:22.920Z,9.07
2022-08-24T20:44:50.487Z,9.75
2022-08-24T20:47:19.500Z,10.07
2022-08-24T20:49:47.684Z,9.75
2022-08-24T20:52:15.349Z,9.75
2022-08-24T20:54:42.819Z,10.70
2022-08-24T20:57:12.344Z,10.70
2022-08-24T20:59:39.883Z,10.73
2022-08-24T21:02:07.349Z,10.70
2022-08-24T21:04:36.132Z,11.60
2022-08-24T21:07:03.578Z,10.83
2022-08-24T21:09:31.074Z,10.65
2022-08-24T21:11:58.505Z,11.32
2022-08-24T21:14:25.886Z,11.48
2022-08-24T21:16:54.324Z,11.82
2022-08-24T21:19:21.742Z,11.07
2022-08-24T21:21:51.119Z,10.60
2022-08-24T21:24:18.542Z,10.55
2022-08-24T21:26:46.282Z,10.57
2022-08-24T21:29:13.714Z,11.18
2022-08-24T21:31:42.328Z,11.07
2022-08-24T21:34:27.906Z,10.88
2022-08-24T21:36:56.823Z,10.45
2022-08-24T21:39:25.159Z,10.73
2022-08-24T21:41:53.392Z,10.65
2022-08-24T21:44:20.799Z,10.70
2022-08-24T21:46:49.273Z,9.68
2022-08-24T21:49:16.714Z,10.73
2022-08-24T21:51:44.180Z,10.57
2022-08-24T21:54:13.312Z,10.02
2022-08-24T21:56:40.811Z,10.20
2022-08-24T21:59:08.235Z,10.38
2022-08-24T22:01:35.824Z,10.82
2022-08-24T22:04:03.718Z,10.65
2022-08-24T22:06:31.998Z,10.35
2022-08-24T22:08:59.526Z,10.40
2022-08-24T22:11:29.521Z,10.10
2022-08-24T22:13:57.449Z,10.60
2022-08-24T22:16:25.392Z,10.32
2022-08-24T22:18:52.971Z,10.50
2022-08-24T22:21:22.732Z,11.33
2022-08-24T22:23:50.422Z,10.55
2022-08-24T22:26:18.216Z,11.38
2022-08-24T22:28:47.950Z,11.38
2022-08-24T22:31:16.858Z,11.85
2022-08-24T22:33:44.324Z,11.60
2022-08-24T22:36:12.086Z,11.45
2022-08-24T22:38:39.569Z,11.93
2022-08-24T22:41:07.340Z,12.13
2022-08-24T22:43:48.747Z,11.20
2022-08-24T22:46:20.219Z,11.87
2022-08-24T22:48:47.787Z,12.43
2022-08-24T22:51:15.789Z,11.18
2022-08-24T22:53:43.296Z,13.90
2022-08-24T22:56:18.141Z,13.07
2022-08-24T22:58:45.952Z,13.10
2022-08-24T23:01:20.897Z,13.35
2022-08-24T23:03:49.880Z,13.93
2022-08-24T23:06:17.992Z,14.25
2022-08-24T23:08:45.746Z,14.55
2022-08-24T23:11:14.856Z,14.67
2022-08-24T23:13:42.638Z,14.00
2022-08-24T23:16:11.313Z,14.73
2022-08-24T23:18:58.119Z,14.70
2022-08-24T23:21:25.839Z,16.00
2022-08-24T23:23:55.655Z,15.60
2022-08-24T23:26:23.207Z,15.40
2022-08-24T23:28:50.634Z,16.23
2022-08-24T23:31:19.464Z,17.80
2022-08-24T23:33:48.400Z,17.52
2022-08-24T23:36:16.788Z,16.77
2022-08-24T23:38:44.313Z,16.85
2022-08-24T23:41:13.001Z,18.02
2022-08-24T23:43:41.335Z,18.05
2022-08-24T23:46:08.956Z,18.15
2022-08-24T23:48:37.486Z,17.90
2022-08-24T23:51:08.483Z,17.95
2022-08-24T23:53:35.937Z,19.42
2022-08-24T23:56:07.661Z,19.85
2022-08-24T23:58:35.085Z,19.48
